Time,TemperatureF,DewpointF,PressureIn,WindDirection,WindDirectionDegrees,WindSpeedMPH,WindSpeedGustMPH,Humidity,HourlyPrecipIn,Conditions,Clouds,dailyrainin,SoftwareType,DateUTC
2013-10-12 00:08:00,-999.0,-99.9,30.11,North,5,0.0,-999.0,-999,-99.99,,,0.00,weatherlink.com 1.10,2013-10-12 04:08:00,
2013-10-12 00:23:00,-999.0,-99.9,30.11,NNW,340,0.0,-999.0,-999,-99.99,,,0.00,weatherlink.com 1.10,2013-10-12 04:23:00,
2013-10-12 00:38:00,-999.0,-99.9,30.11,NNW,340,0.0,-999.0,-999,-99.99,,,0.00,weatherlink.com 1.10,2013-10-12 04:38:00,
2013-10-12 00:53:00,-999.0,-99.9,30.11,North,8,0.0,-999.0,-999,-99.99,,,0.00,weatherlink.com 1.10,2013-10-12 04:53:00,
2013-10-12 01:08:00,-999.0,-99.9,30.11,North,8,0.0,-999.0,-999,-99.99,,,0.00,weatherlink.com 1.10,2013-10-12 05:08:00,
2013-10-12 01:23:00,-999.0,-99.9,30.11,North,8,0.0,-999.0,-999,-99.99,,,0.00,weatherlink.com 1.10,2013-10-12 05:23:00,
2013-10-12 01:38:00,-999.0,-99.9,30.11,North,8,0.0,-999.0,-999,-99.99,,,0.00,weatherlink.com 1.10,2013-10-12 05:38:00,
2013-10-12 01:53:00,-999.0,-99.9,30.11,North,9,0.0,-999.0,-999,-99.99,,,0.00,weatherlink.com 1.10,2013-10-12 05:53:00,
2013-10-12 02:08:00,-999.0,-99.9,30.12,North,9,0.0,-999.0,-999,-99.99,,,0.00,weatherlink.com 1.10,2013-10-12 06:08:00,
2013-10-12 02:23:00,-999.0,-99.9,30.12,North,10,0.0,-999.0,-999,-99.99,,,0.00,weatherlink.com 1.10,2013-10-12 06:23:00,
2013-10-12 02:38:00,-999.0,-99.9,30.12,NW,310,0.0,-999.0,-999,-99.99,,,0.00,weatherlink.com 1.10,2013-10-12 06:38:00,
2013-10-12 02:53:00,-999.0,-99.9,30.12,NW,310,0.0,-999.0,-999,-99.99,,,0.00,weatherlink.com 1.10,2013-10-12 06:53:00,
2013-10-12 03:08:00,-999.0,-99.9,30.13,North,356,0.0,-999.0,-999,-99.99,,,0.00,weatherlink.com 1.10,2013-10-12 07:08:00,
2013-10-12 03:23:00,-999.0,-99.9,30.13,North,358,0.0,-999.0,-999,-99.99,,,0.00,weatherlink.com 1.10,2013-10-12 07:23:00,
2013-10-12 03:38:00,-999.0,-99.9,30.13,North,2,0.0,-999.0,-999,-99.99,,,0.00,weatherlink.com 1.10,2013-10-12 07:38:00,
2013-10-12 03:53:00,-999.0,-99.9,30.13,NNE,14,0.0,-999.0,-999,-99.99,,,0.00,weatherlink.com 1.10,2013-10-12 07:53:00,
2013-10-12 04:08:00,-999.0,-99.9,30.13,NE,51,0.0,-999.0,-999,-99.99,,,0.00,weatherlink.com 1.10,2013-10-12 08:08:00,
2013-10-12 04:23:00,-999.0,-99.9,30.14,West,259,0.0,-999.0,-999,-99.99,,,0.00,weatherlink.com 1.10,2013-10-12 08:23:00,
2013-10-12 04:38:00,-999.0,-99.9,30.14,West,260,0.0,-999.0,-999,-99.99,,,0.00,weatherlink.com 1.10,2013-10-12 08:38:00,
2013-10-12 04:53:00,-999.0,-99.9,30.14,NE,34,0.0,-999.0,-999,-99.99,,,0.00,weatherlink.com 1.10,2013-10-12 08:53:00,
2013-10-12 05:08:00,-999.0,-99.9,30.14,NNE,32,0.0,-999.0,-999,-99.99,,,0.00,weatherlink.com 1.10,2013-10-12 09:08:00,
2013-10-12 05:23:00,-999.0,-99.9,30.15,ENE,74,0.0,-999.0,-999,-99.99,,,0.00,weatherlink.com 1.10,2013-10-12 09:23:00,
2013-10-12 05:38:00,-999.0,-99.9,30.15,ENE,72,0.0,-999.0,-999,-99.99,,,0.00,weatherlink.com 1.10,2013-10-12 09:38:00,
2013-10-12 05:53:00,-999.0,-99.9,30.15,NNE,15,0.0,-999.0,-999,-99.99,,,0.00,weatherlink.com 1.10,2013-10-12 09:53:00,
2013-10-12 06:08:00,-999.0,-99.9,30.15,NE,56,0.0,-999.0,-999,-99.99,,,0.00,weatherlink.com 1.10,2013-10-12 10:08:00,
2013-10-12 06:23:00,-999.0,-99.9,30.15,NE,56,0.0,-999.0,-999,-99.99,,,0.00,weatherlink.com 1.10,2013-10-12 10:23:00,
2013-10-12 06:38:00,-999.0,-99.9,30.15,NNE,23,0.0,-999.0,-999,-99.99,,,0.00,weatherlink.com 1.10,2013-10-12 10:38:00,
2013-10-12 06:53:00,-999.0,-99.9,30.16,SE,134,0.0,-999.0,-999,-99.99,,,0.00,weatherlink.com 1.10,2013-10-12 10:53:00,
2013-10-12 07:08:00,-999.0,-99.9,30.17,NE,47,1.0,-999.0,-999,-99.99,,,0.00,weatherlink.com 1.10,2013-10-12 11:08:00,
2013-10-12 07:23:00,-999.0,-99.9,30.18,NE,46,0.0,-999.0,-999,-99.99,,,0.00,weatherlink.com 1.10,2013-10-12 11:23:00,
2013-10-12 07:38:00,-999.0,-99.9,30.19,NE,34,0.0,-999.0,-999,-99.99,,,0.00,weatherlink.com 1.10,2013-10-12 11:38:00,
2013-10-12 07:53:00,-999.0,-99.9,30.19,ENE,57,0.0,-999.0,-999,-99.99,,,0.00,weatherlink.com 1.10,2013-10-12 11:53:00,
2013-10-12 08:08:00,-999.0,-99.9,30.20,NE,34,0.0,-999.0,-999,-99.99,,,0.00,weatherlink.com 1.10,2013-10-12 12:08:00,
2013-10-12 08:23:00,-999.0,-99.9,30.20,NE,34,0.0,-999.0,-999,-99.99,,,0.00,weatherlink.com 1.10,2013-10-12 12:23:00,
2013-10-12 08:38:00,61.0,33.0,30.20,East,81,2.0,-999.0,35,-99.99,,,0.00,weatherlink.com 1.10,2013-10-12 12:38:00,
2013-10-12 08:53:00,61.4,43.0,30.21,ENE,78,0.0,-999.0,52,-99.99,,,0.00,weatherlink.com 1.10,2013-10-12 12:53:00,
2013-10-12 09:08:00,62.0,45.0,30.21,NE,47,0.0,-999.0,55,-99.99,,,0.00,weatherlink.com 1.10,2013-10-12 13:08:00,
2013-10-12 09:23:00,62.5,47.0,30.22,ENE,64,0.0,-999.0,58,-99.99,,,0.00,weatherlink.com 1.10,2013-10-12 13:23:00,
2013-10-12 09:38:00,62.7,47.0,30.23,East,87,0.0,-999.0,58,-99.99,,,0.00,weatherlink.com 1.10,2013-10-12 13:38:00,
2013-10-12 09:53:00,62.6,47.0,30.23,NE,38,0.0,-999.0,57,-99.99,,,0.00,weatherlink.com 1.10,2013-10-12 13:53:00,
2013-10-12 10:08:00,63.0,48.0,30.23,ENE,76,0.0,-999.0,59,-99.99,,,0.00,weatherlink.com 1.10,2013-10-12 14:08:00,
2013-10-12 10:24:00,63.4,49.0,30.23,NNE,20,1.0,-999.0,60,-99.99,,,0.00,weatherlink.com 1.10,2013-10-12 14:24:00,
2013-10-12 10:38:00,63.5,50.0,30.24,NE,50,1.0,-999.0,62,-99.99,,,0.00,weatherlink.com 1.10,2013-10-12 14:38:00,
2013-10-12 10:53:00,63.8,51.0,30.24,NNE,28,1.0,-999.0,63,-99.99,,,0.00,weatherlink.com 1.10,2013-10-12 14:53:00,
2013-10-12 11:09:00,64.5,51.0,30.25,NE,39,0.0,-999.0,63,-99.99,,,0.00,weatherlink.com 1.10,2013-10-12 15:09:00,
2013-10-12 11:23:00,64.5,52.0,30.25,NE,51,1.0,-999.0,65,-99.99,,,0.00,weatherlink.com 1.10,2013-10-12 15:23:00,
2013-10-12 11:38:00,64.5,52.0,30.25,NE,54,0.0,-999.0,65,-99.99,,,0.00,weatherlink.com 1.10,2013-10-12 15:38:00,
2013-10-12 11:53:00,64.5,53.0,30.25,ENE,57,0.0,-999.0,66,-99.99,,,0.00,weatherlink.com 1.10,2013-10-12 15:53:00,
2013-10-12 12:08:00,64.0,52.0,30.25,ENE,66,1.0,-999.0,66,-99.99,,,0.00,weatherlink.com 1.10,2013-10-12 16:08:00,
2013-10-12 12:23:00,63.3,51.0,30.25,NE,44,2.0,-999.0,64,-99.99,,,0.00,weatherlink.com 1.10,2013-10-12 16:23:00,
2013-10-12 12:38:00,63.2,51.0,30.25,NNE,29,0.0,-999.0,64,-99.99,,,0.00,weatherlink.com 1.10,2013-10-12 16:38:00,
2013-10-12 12:53:00,62.8,50.0,30.25,ENE,68,1.0,-999.0,63,-99.99,,,0.00,weatherlink.com 1.10,2013-10-12 16:53:00,
2013-10-12 13:08:00,62.0,48.0,30.25,NE,37,3.0,-999.0,61,-99.99,,,0.00,weatherlink.com 1.10,2013-10-12 17:08:00,
2013-10-12 13:23:00,61.7,47.0,30.25,ENE,78,1.0,-999.0,59,-99.99,,,0.00,weatherlink.com 1.10,2013-10-12 17:23:00,
2013-10-12 13:38:00,61.6,46.0,30.25,NE,52,1.0,-999.0,58,-99.99,,,0.00,weatherlink.com 1.10,2013-10-12 17:38:00,
2013-10-12 13:53:00,61.3,46.0,30.25,NE,41,1.0,-999.0,58,-99.99,,,0.00,weatherlink.com 1.10,2013-10-12 17:53:00,
2013-10-12 14:08:00,60.8,45.0,30.26,NNE,33,0.0,-999.0,56,-99.99,,,0.00,weatherlink.com 1.10,2013-10-12 18:08:00,
2013-10-12 14:23:00,60.3,43.0,30.26,NE,42,0.0,-999.0,53,-99.99,,,0.00,weatherlink.com 1.10,2013-10-12 18:23:00,
2013-10-12 14:38:00,60.0,43.0,30.27,East,80,0.0,-999.0,53,-99.99,,,0.00,weatherlink.com 1.10,2013-10-12 18:38:00,
2013-10-12 14:53:00,59.9,43.0,30.27,NE,47,0.0,-999.0,53,-99.99,,,0.00,weatherlink.com 1.10,2013-10-12 18:53:00,
2013-10-12 15:08:00,59.8,43.0,30.27,NE,45,2.0,-999.0,54,-99.99,,,0.00,weatherlink.com 1.10,2013-10-12 19:08:00,
2013-10-12 15:23:00,-999.0,-99.9,30.27,NE,38,0.0,-999.0,-999,-99.99,,,0.00,weatherlink.com 1.10,2013-10-12 19:23:00,
2013-10-12 15:38:00,-999.0,-99.9,30.28,North,1,0.0,-999.0,-999,-99.99,,,0.00,weatherlink.com 1.10,2013-10-12 19:38:00,
2013-10-12 15:53:00,-999.0,-99.9,30.28,NNE,30,0.0,-999.0,-999,-99.99,,,0.00,weatherlink.com 1.10,2013-10-12 19:53:00,
2013-10-12 16:08:00,-999.0,-99.9,30.28,NE,39,0.0,-999.0,-999,-99.99,,,0.00,weatherlink.com 1.10,2013-10-12 20:08:00,
2013-10-12 16:23:00,-999.0,-99.9,30.28,ENE,70,0.0,-999.0,-999,-99.99,,,0.00,weatherlink.com 1.10,2013-10-12 20:23:00,
2013-10-12 16:38:00,-999.0,-99.9,30.28,NNE,20,0.0,-999.0,-999,-99.99,,,0.00,weatherlink.com 1.10,2013-10-12 20:38:00,
2013-10-12 16:53:00,-999.0,-99.9,30.29,NNE,30,1.0,-999.0,-999,-99.99,,,0.00,weatherlink.com 1.10,2013-10-12 20:53:00,
2013-10-12 17:08:00,-999.0,-99.9,30.29,NNW,347,4.0,-999.0,-999,-99.99,,,0.00,weatherlink.com 1.10,2013-10-12 21:08:00,
2013-10-12 17:23:00,-999.0,-99.9,30.29,ENE,64,1.0,-999.0,-999,-99.99,,,0.00,weatherlink.com 1.10,2013-10-12 21:23:00,
2013-10-12 17:38:00,-999.0,-99.9,30.30,NE,48,0.0,-999.0,-999,-99.99,,,0.00,weatherlink.com 1.10,2013-10-12 21:38:00,
2013-10-12 17:53:00,-999.0,-99.9,30.30,North,-999,-999.0,-999.0,-999,-99.99,,,0.00,weatherlink.com 1.10,2013-10-12 21:53:00,
2013-10-12 18:08:00,-999.0,-99.9,30.30,NNE,18,0.0,-999.0,-999,-99.99,,,0.00,weatherlink.com 1.10,2013-10-12 22:08:00,
2013-10-12 18:23:00,-999.0,-99.9,30.30,NNE,23,0.0,-999.0,-999,-99.99,,,0.00,weatherlink.com 1.10,2013-10-12 22:23:00,
2013-10-12 18:38:00,-999.0,-99.9,30.31,East,79,0.0,-999.0,-999,-99.99,,,0.00,weatherlink.com 1.10,2013-10-12 22:38:00,
2013-10-12 18:53:00,-999.0,-99.9,30.31,ENE,62,1.0,-999.0,-999,-99.99,,,0.00,weatherlink.com 1.10,2013-10-12 22:53:00,
2013-10-12 19:08:00,-999.0,-99.9,30.31,North,3,0.0,-999.0,-999,-99.99,,,0.00,weatherlink.com 1.10,2013-10-12 23:08:00,
2013-10-12 19:23:00,-999.0,-99.9,30.31,NE,44,0.0,-999.0,-999,-99.99,,,0.00,weatherlink.com 1.10,2013-10-12 23:23:00,
2013-10-12 19:38:00,-999.0,-99.9,30.31,NE,55,0.0,-999.0,-999,-99.99,,,0.00,weatherlink.com 1.10,2013-10-12 23:38:00,
2013-10-12 19:53:00,-999.0,-99.9,30.32,ENE,58,0.0,-999.0,-999,-99.99,,,0.00,weatherlink.com 1.10,2013-10-12 23:53:00,
2013-10-12 20:08:00,-999.0,-99.9,30.32,NNE,23,0.0,-999.0,-999,-99.99,,,0.00,weatherlink.com 1.10,2013-10-13 00:08:00,
2013-10-12 20:23:00,-999.0,-99.9,30.32,NE,34,0.0,-999.0,-999,-99.99,,,0.00,weatherlink.com 1.10,2013-10-13 00:23:00,
2013-10-12 20:38:00,-999.0,-99.9,30.33,NNE,33,0.0,-999.0,-999,-99.99,,,0.00,weatherlink.com 1.10,2013-10-13 00:38:00,
2013-10-12 20:53:00,-999.0,-99.9,30.34,NNE,29,0.0,-999.0,-999,-99.99,,,0.00,weatherlink.com 1.10,2013-10-13 00:53:00,
2013-10-12 21:08:00,-999.0,-99.9,30.34,NNE,25,0.0,-999.0,-999,-99.99,,,0.00,weatherlink.com 1.10,2013-10-13 01:08:00,
2013-10-12 21:23:00,-999.0,-99.9,30.34,NNE,12,0.0,-999.0,-999,-99.99,,,0.00,weatherlink.com 1.10,2013-10-13 01:23:00,
2013-10-12 21:38:00,-999.0,-99.9,30.34,NNE,27,0.0,-999.0,-999,-99.99,,,0.00,weatherlink.com 1.10,2013-10-13 01:38:00,
2013-10-12 21:53:00,-999.0,-99.9,30.34,NNE,21,0.0,-999.0,-999,-99.99,,,0.00,weatherlink.com 1.10,2013-10-13 01:53:00,
2013-10-12 22:08:00,-999.0,-99.9,30.34,NE,35,0.0,-999.0,-999,-99.99,,,0.00,weatherlink.com 1.10,2013-10-13 02:08:00,
2013-10-12 22:23:00,-999.0,-99.9,30.34,NE,54,0.0,-999.0,-999,-99.99,,,0.00,weatherlink.com 1.10,2013-10-13 02:23:00,
2013-10-12 22:38:00,-999.0,-99.9,30.34,North,11,0.0,-999.0,-999,-99.99,,,0.00,weatherlink.com 1.10,2013-10-13 02:38:00,
2013-10-12 22:53:00,-999.0,-99.9,30.35,NNE,27,0.0,-999.0,-999,-99.99,,,0.00,weatherlink.com 1.10,2013-10-13 02:53:00,
2013-10-12 23:08:00,-999.0,-99.9,30.34,NNE,26,0.0,-999.0,-999,-99.99,,,0.00,weatherlink.com 1.10,2013-10-13 03:08:00,
2013-10-12 23:23:00,-999.0,-99.9,30.34,NNE,23,0.0,-999.0,-999,-99.99,,,0.00,weatherlink.com 1.10,2013-10-13 03:23:00,
2013-10-12 23:38:00,-999.0,-99.9,30.34,NNE,20,0.0,-999.0,-999,-99.99,,,0.00,weatherlink.com 1.10,2013-10-13 03:38:00,
2013-10-12 23:53:00,-999.0,-99.9,30.34,NNE,26,1.0,-999.0,-999,-99.99,,,0.00,weatherlink.com 1.10,2013-10-13 03:53:00,